createdAt,value
2018-09-21T09:11:31.412Z,123.75
2018-09-21T09:12:30.779Z,123.75
2018-09-21T09:13:31.304Z,118.13
2018-09-21T09:14:30.868Z,118.13
2018-09-21T09:15:31.235Z,129.38
2018-09-21T09:16:30.718Z,135.00
2018-09-21T09:17:31.196Z,129.38
2018-09-21T09:18:30.271Z,118.13
2018-09-21T09:19:31.166Z,112.50
2018-09-21T09:20:31.478Z,106.88
2018-09-21T09:21:31.369Z,112.50
2018-09-21T09:22:31.138Z,123.75
2018-09-21T09:23:30.460Z,129.38
2018-09-21T09:24:30.951Z,135.00
2018-09-21T09:25:29.646Z,135.00
2018-09-21T09:26:29.684Z,135.00
2018-09-21T09:27:31.419Z,140.63
2018-09-21T09:28:28.979Z,157.50
2018-09-21T09:29:28.747Z,191.25
2018-09-21T09:30:28.810Z,213.75
2018-09-21T09:31:28.696Z,219.38
2018-09-21T09:32:28.655Z,208.13
2018-09-21T09:33:28.640Z,185.63
2018-09-21T09:34:28.612Z,168.75
2018-09-21T09:35:28.568Z,157.50
2018-09-21T09:36:28.550Z,151.88
2018-09-21T09:37:28.531Z,146.25
2018-09-21T09:38:28.485Z,146.25
2018-09-21T09:39:28.493Z,146.25
2018-09-21T09:40:28.436Z,163.13
2018-09-21T09:41:28.474Z,208.13
2018-09-21T09:42:28.363Z,225.00
2018-09-21T09:43:28.388Z,213.75
2018-09-21T09:44:28.310Z,180.00
2018-09-21T09:45:28.280Z,151.88
2018-09-21T09:46:28.251Z,151.88
2018-09-21T09:47:28.255Z,157.50
2018-09-21T09:48:28.270Z,157.50
2018-09-21T09:49:28.162Z,174.38
2018-09-21T09:50:28.171Z,168.75
2018-09-21T09:51:28.231Z,146.25
2018-09-21T09:52:28.096Z,146.25
2018-09-21T09:53:28.091Z,157.50
2018-09-21T09:54:28.079Z,168.75
2018-09-21T09:55:27.987Z,168.75
2018-09-21T09:56:27.992Z,174.38
2018-09-21T09:57:27.935Z,185.63
2018-09-21T09:58:28.003Z,185.63
2018-09-21T09:59:27.961Z,180.00
2018-09-21T10:00:27.851Z,168.75
2018-09-21T10:01:27.811Z,157.50
2018-09-21T10:02:27.811Z,157.50
2018-09-21T10:03:27.769Z,174.38
2018-09-21T10:04:27.722Z,168.75
2018-09-21T10:05:27.708Z,163.13
2018-09-21T10:06:27.669Z,168.75
2018-09-21T10:07:27.704Z,180.00
2018-09-21T10:08:27.619Z,196.88
2018-09-21T10:09:27.646Z,202.50
2018-09-21T10:10:27.653Z,196.88
2018-09-21T10:11:27.616Z,202.50
2018-09-21T10:12:27.499Z,213.75
2018-09-21T10:13:27.528Z,241.88
2018-09-21T10:14:27.489Z,247.50
2018-09-21T10:15:27.406Z,264.38
2018-09-21T10:16:27.589Z,275.63
2018-09-21T10:17:27.467Z,298.13
2018-09-21T10:18:27.413Z,326.25
2018-09-21T10:19:27.484Z,309.38
2018-09-21T10:20:27.439Z,275.63
2018-09-21T10:21:27.543Z,298.13
2018-09-21T10:22:27.382Z,365.63
2018-09-21T10:23:27.415Z,382.50
2018-09-21T10:24:27.150Z,393.75
2018-09-21T10:25:27.332Z,360.00
2018-09-21T10:26:27.244Z,354.38
2018-09-21T10:27:27.167Z,393.75
2018-09-21T10:28:27.549Z,388.13
2018-09-21T10:29:27.007Z,337.50
2018-09-21T10:30:27.098Z,303.75
2018-09-21T10:31:27.028Z,320.63
2018-09-21T10:32:26.951Z,275.63
2018-09-21T10:33:26.958Z,253.13
2018-09-21T10:34:27.300Z,230.63
2018-09-21T10:35:26.903Z,236.25
2018-09-21T10:36:26.849Z,264.38
2018-09-21T10:37:26.936Z,286.88
2018-09-21T10:38:26.756Z,320.63
2018-09-21T10:39:26.825Z,360.00
2018-09-21T10:40:26.843Z,382.50
2018-09-21T10:41:26.667Z,382.50
2018-09-21T10:42:26.854Z,376.88
2018-09-21T10:43:26.932Z,354.38
2018-09-21T10:44:26.592Z,343.13
2018-09-21T10:45:26.785Z,354.38
2018-09-21T10:46:26.676Z,360.00
2018-09-21T10:47:26.489Z,365.63
2018-09-21T10:48:26.692Z,360.00
2018-09-21T10:49:26.483Z,360.00
2018-09-21T10:50:26.579Z,376.88
2018-09-21T10:51:26.468Z,360.00
2018-09-21T10:52:26.570Z,348.75
2018-09-21T10:53:26.354Z,337.50
2018-09-21T10:54:26.431Z,343.13
2018-09-21T10:55:26.563Z,360.00
2018-09-21T10:56:26.406Z,354.38
2018-09-21T10:57:26.432Z,320.63
2018-09-21T10:58:26.237Z,298.13
2018-09-21T10:59:26.284Z,315.00
2018-09-21T11:00:26.132Z,303.75
2018-09-21T11:01:26.139Z,281.25
2018-09-21T11:02:26.077Z,241.88
2018-09-21T11:03:26.061Z,196.88
2018-09-21T11:04:26.104Z,196.88
2018-09-21T11:05:26.155Z,253.13
2018-09-21T11:06:25.961Z,225.00
2018-09-21T11:07:25.931Z,236.25
2018-09-21T11:08:25.907Z,213.75
2018-09-21T11:09:25.886Z,230.63
2018-09-21T11:10:25.957Z,208.13
2018-09-21T11:11:25.813Z,168.75
2018-09-21T11:12:25.824Z,129.38
2018-09-21T11:13:25.760Z,135.00
2018-09-21T11:14:25.813Z,140.63
2018-09-21T11:15:25.712Z,129.38
2018-09-21T11:16:25.790Z,129.38
2018-09-21T11:17:25.759Z,106.88
2018-09-21T11:18:25.753Z,101.25
2018-09-21T11:19:25.596Z,129.38
2018-09-21T11:20:25.643Z,135.00
2018-09-21T11:21:25.638Z,168.75
2018-09-21T11:22:25.509Z,213.75
2018-09-21T11:23:25.503Z,236.25
2018-09-21T11:24:25.450Z,230.63
2018-09-21T11:25:25.484Z,320.63
2018-09-21T11:26:25.387Z,393.75
2018-09-21T11:27:25.365Z,371.25
2018-09-21T11:28:25.458Z,331.88
2018-09-21T11:29:25.301Z,303.75
2018-09-21T11:30:25.305Z,348.75
2018-09-21T11:31:44.859Z,331.88
2018-09-21T11:35:15.946Z,630.00
2018-09-21T11:36:15.091Z,590.63
2018-09-21T11:38:21.852Z,618.75
2018-09-21T11:39:21.385Z,635.63
2018-09-21T11:47:16.966Z,686.25
2018-09-21T11:48:18.438Z,703.13
2018-09-21T11:49:17.741Z,714.38
2018-09-21T11:50:16.296Z,686.25
2018-09-21T11:51:16.639Z,607.50
2018-09-21T11:52:17.980Z,585.00
2018-09-21T11:53:19.713Z,545.63
2018-09-21T11:54:20.110Z,573.75
2018-09-21T11:55:16.610Z,500.63
2018-09-21T12:02:06.213Z,568.13
2018-09-21T12:03:06.566Z,523.13
2018-09-21T12:05:23.693Z,416.25
2018-09-21T12:06:23.035Z,427.50
2018-09-21T12:14:11.868Z,196.88
2018-09-21T12:15:11.691Z,191.25
2018-09-21T12:17:14.755Z,140.63
2018-09-21T12:18:14.434Z,163.13
2018-09-21T12:19:13.920Z,185.63
2018-09-21T12:20:13.728Z,168.75
2018-09-21T12:21:14.465Z,163.13
2018-09-21T12:22:13.404Z,185.63
2018-09-21T12:23:15.238Z,185.63
2018-09-21T12:24:14.309Z,157.50
2018-09-21T12:25:13.915Z,157.50
2018-09-21T12:26:14.294Z,168.75
2018-09-21T12:27:14.207Z,196.88
2018-09-21T12:28:42.083Z,253.13
2018-09-21T12:31:57.764Z,298.13
2018-09-21T12:32:59.241Z,315.00
2018-09-21T12:38:44.354Z,343.13
2018-09-21T12:43:46.384Z,421.88
2018-09-21T12:44:26.050Z,624.38
2018-09-21T12:49:48.319Z,478.13
2018-09-21T12:50:46.897Z,466.88
2018-09-21T12:51:49.616Z,500.63
2018-09-21T12:59:22.781Z,826.88
2018-09-21T13:00:22.288Z,551.25
2018-09-21T13:59:48.315Z,973.13
2018-09-21T14:00:47.240Z,956.25
2018-09-21T14:07:00.193Z,3892.50
2018-09-21T14:22:33.751Z,697.50
2018-09-21T15:15:02.958Z,8111.25
2018-09-21T15:19:29.329Z,6468.75
2018-09-21T15:45:35.341Z,3256.88
2018-09-21T16:01:50.255Z,478.13
2018-09-21T16:02:44.202Z,433.13
2018-09-21T16:03:42.350Z,416.25
2018-09-21T16:08:14.651Z,613.13
2018-09-21T16:09:13.058Z,832.50
2018-09-21T16:12:09.713Z,2851.88
2018-09-21T16:18:24.054Z,2671.88
2018-09-21T16:19:15.118Z,2683.13
2018-09-21T16:21:19.985Z,2542.50
2018-09-21T16:28:33.717Z,360.00
2018-09-21T16:29:32.504Z,393.75
2018-09-21T16:36:26.808Z,326.25
2018-09-21T16:37:24.569Z,371.25
2018-09-21T16:39:26.141Z,315.00
2018-09-21T16:40:25.042Z,225.00
2018-09-21T16:42:31.315Z,196.88
2018-09-21T16:43:31.037Z,191.25
2018-09-21T16:45:38.385Z,180.00
2018-09-21T16:46:34.996Z,174.38
2018-09-21T16:47:35.402Z,168.75
2018-09-21T16:48:33.732Z,163.13
2018-09-21T16:49:33.332Z,157.50
2018-09-21T16:50:34.112Z,151.88
2018-09-21T16:51:33.095Z,146.25
2018-09-21T16:52:33.321Z,146.25
2018-09-21T16:53:35.424Z,140.63
2018-09-21T16:54:33.601Z,140.63
2018-09-21T16:58:29.510Z,129.38
2018-09-21T16:59:27.781Z,123.75
2018-09-21T17:00:28.883Z,123.75
2018-09-21T17:03:07.277Z,112.50
2018-09-21T17:04:05.679Z,106.88
2018-09-21T17:07:55.763Z,90.00
2018-09-21T17:08:56.654Z,90.00
2018-09-21T17:09:57.992Z,84.38
2018-09-21T17:10:56.312Z,78.75
2018-09-21T17:11:58.140Z,73.13
2018-09-21T17:19:30.737Z,45.00
2018-09-21T17:20:30.397Z,39.38
2018-09-21T17:35:27.298Z,11.25
2018-09-21T17:36:28.260Z,11.25
2018-09-21T17:44:09.182Z,5.63
2018-09-21T17:45:08.106Z,5.63
2018-09-21T17:46:09.690Z,0.00
2018-09-21T17:47:08.866Z,0.00
2018-09-21T17:51:48.327Z,0.00
2018-09-21T18:19:00.474Z,0.00
